sensor_id;sensor_type;location;lat;lon;timestamp;P1;durP1;ratioP1;P2;durP2;ratioP2
2029;SDS011;1020;48.854;8.830;2023-03-01T00:02:18;15.17;;;12.00;;
2029;SDS011;1020;48.854;8.830;2023-03-01T00:04:45;16.10;;;12.90;;
2029;SDS011;1020;48.854;8.830;2023-03-01T00:07:12;16.53;;;12.57;;
2029;SDS011;1020;48.854;8.830;2023-03-01T00:09:39;16.23;;;12.90;;
2029;SDS011;1020;48.854;8.830;2023-03-01T00:12:07;19.00;;;14.33;;
2029;SDS011;1020;48.854;8.830;2023-03-01T00:14:34;17.30;;;14.53;;
2029;SDS011;1020;48.854;8.830;2023-03-01T00:17:01;21.60;;;15.23;;
2029;SDS011;1020;48.854;8.830;2023-03-01T00:19:28;21.83;;;17.63;;
2029;SDS011;1020;48.854;8.830;2023-03-01T00:21:55;18.13;;;13.80;;
2029;SDS011;1020;48.854;8.830;2023-03-01T00:24:22;13.90;;;11.50;;
2029;SDS011;1020;48.854;8.830;2023-03-01T00:26:48;13.50;;;11.60;;
2029;SDS011;1020;48.854;8.830;2023-03-01T00:29:21;15.27;;;12.13;;
2029;SDS011;1020;48.854;8.830;2023-03-01T00:31:48;16.33;;;12.97;;
2029;SDS011;1020;48.854;8.830;2023-03-01T00:34:15;14.80;;;13.00;;
2029;SDS011;1020;48.854;8.830;2023-03-01T00:36:42;16.10;;;12.60;;
2029;SDS011;1020;48.854;8.830;2023-03-01T00:39:09;28.90;;;20.37;;
2029;SDS011;1020;48.854;8.830;2023-03-01T00:41:39;25.97;;;18.87;;
2029;SDS011;1020;48.854;8.830;2023-03-01T00:44:06;18.80;;;16.80;;
2029;SDS011;1020;48.854;8.830;2023-03-01T00:46:34;17.40;;;15.10;;
2029;SDS011;1020;48.854;8.830;2023-03-01T00:49:01;19.77;;;14.20;;
2029;SDS011;1020;48.854;8.830;2023-03-01T00:51:29;16.10;;;12.93;;
2029;SDS011;1020;48.854;8.830;2023-03-01T00:53:57;19.60;;;13.63;;
2029;SDS011;1020;48.854;8.830;2023-03-01T00:56:24;17.47;;;13.30;;
2029;SDS011;1020;48.854;8.830;2023-03-01T00:58:51;17.97;;;14.17;;
2029;SDS011;1020;48.854;8.830;2023-03-01T01:01:19;18.43;;;13.60;;
2029;SDS011;1020;48.854;8.830;2023-03-01T01:03:48;16.97;;;13.63;;
2029;SDS011;1020;48.854;8.830;2023-03-01T01:06:17;19.23;;;14.30;;
2029;SDS011;1020;48.854;8.830;2023-03-01T01:08:45;20.37;;;14.00;;
2029;SDS011;1020;48.854;8.830;2023-03-01T01:11:13;16.77;;;14.73;;
2029;SDS011;1020;48.854;8.830;2023-03-01T01:13:40;21.20;;;13.87;;
2029;SDS011;1020;48.854;8.830;2023-03-01T01:16:08;19.50;;;14.40;;
2029;SDS011;1020;48.854;8.830;2023-03-01T01:18:34;16.17;;;13.40;;
2029;SDS011;1020;48.854;8.830;2023-03-01T01:21:06;14.90;;;11.83;;
2029;SDS011;1020;48.854;8.830;2023-03-01T01:23:34;16.47;;;12.20;;
2029;SDS011;1020;48.854;8.830;2023-03-01T01:26:03;15.60;;;12.93;;
2029;SDS011;1020;48.854;8.830;2023-03-01T01:28:31;15.90;;;12.37;;
2029;SDS011;1020;48.854;8.830;2023-03-01T01:30:57;17.73;;;13.90;;
2029;SDS011;1020;48.854;8.830;2023-03-01T01:33:24;16.70;;;13.80;;
2029;SDS011;1020;48.854;8.830;2023-03-01T01:35:51;18.70;;;13.40;;
2029;SDS011;1020;48.854;8.830;2023-03-01T01:38:19;17.37;;;13.80;;
2029;SDS011;1020;48.854;8.830;2023-03-01T01:40:47;18.70;;;14.07;;
2029;SDS011;1020;48.854;8.830;2023-03-01T01:43:17;17.10;;;13.80;;
2029;SDS011;1020;48.854;8.830;2023-03-01T01:45:46;19.27;;;14.20;;
2029;SDS011;1020;48.854;8.830;2023-03-01T01:48:14;19.60;;;13.90;;
2029;SDS011;1020;48.854;8.830;2023-03-01T01:50:45;16.57;;;13.53;;
2029;SDS011;1020;48.854;8.830;2023-03-01T01:53:14;17.57;;;14.73;;
2029;SDS011;1020;48.854;8.830;2023-03-01T01:55:45;25.40;;;15.87;;
2029;SDS011;1020;48.854;8.830;2023-03-01T01:58:18;17.60;;;14.90;;
2029;SDS011;1020;48.854;8.830;2023-03-01T02:00:46;18.10;;;14.73;;
2029;SDS011;1020;48.854;8.830;2023-03-01T02:03:15;18.40;;;13.97;;
2029;SDS011;1020;48.854;8.830;2023-03-01T02:05:46;16.17;;;13.53;;
2029;SDS011;1020;48.854;8.830;2023-03-01T02:08:18;18.90;;;15.00;;
2029;SDS011;1020;48.854;8.830;2023-03-01T02:10:49;17.03;;;13.80;;
2029;SDS011;1020;48.854;8.830;2023-03-01T02:13:17;17.17;;;13.80;;
2029;SDS011;1020;48.854;8.830;2023-03-01T02:15:44;18.77;;;15.67;;
2029;SDS011;1020;48.854;8.830;2023-03-01T02:18:12;17.60;;;13.53;;
2029;SDS011;1020;48.854;8.830;2023-03-01T02:20:43;19.50;;;15.27;;
2029;SDS011;1020;48.854;8.830;2023-03-01T02:23:18;18.67;;;13.40;;
2029;SDS011;1020;48.854;8.830;2023-03-01T02:25:48;17.17;;;13.20;;
2029;SDS011;1020;48.854;8.830;2023-03-01T02:28:24;16.97;;;13.73;;
2029;SDS011;1020;48.854;8.830;2023-03-01T02:30:52;17.57;;;12.87;;
2029;SDS011;1020;48.854;8.830;2023-03-01T02:33:48;16.40;;;13.40;;
2029;SDS011;1020;48.854;8.830;2023-03-01T02:36:15;17.33;;;14.30;;
2029;SDS011;1020;48.854;8.830;2023-03-01T02:38:46;16.30;;;14.13;;
2029;SDS011;1020;48.854;8.830;2023-03-01T02:41:15;17.00;;;13.47;;
2029;SDS011;1020;48.854;8.830;2023-03-01T02:43:44;17.20;;;12.70;;
2029;SDS011;1020;48.854;8.830;2023-03-01T02:46:14;17.20;;;13.67;;
2029;SDS011;1020;48.854;8.830;2023-03-01T02:48:43;16.83;;;14.10;;
2029;SDS011;1020;48.854;8.830;2023-03-01T02:51:17;16.47;;;14.07;;
2029;SDS011;1020;48.854;8.830;2023-03-01T02:53:53;18.00;;;13.43;;
2029;SDS011;1020;48.854;8.830;2023-03-01T02:56:30;17.03;;;13.53;;
2029;SDS011;1020;48.854;8.830;2023-03-01T02:58:59;18.90;;;13.03;;
2029;SDS011;1020;48.854;8.830;2023-03-01T03:01:27;17.23;;;14.10;;
2029;SDS011;1020;48.854;8.830;2023-03-01T03:04:01;16.57;;;14.07;;
2029;SDS011;1020;48.854;8.830;2023-03-01T03:06:29;17.97;;;14.50;;
2029;SDS011;1020;48.854;8.830;2023-03-01T03:08:55;17.73;;;14.43;;
2029;SDS011;1020;48.854;8.830;2023-03-01T03:11:22;19.07;;;14.13;;
2029;SDS011;1020;48.854;8.830;2023-03-01T03:13:49;19.73;;;15.70;;
2029;SDS011;1020;48.854;8.830;2023-03-01T03:16:18;18.30;;;14.67;;
2029;SDS011;1020;48.854;8.830;2023-03-01T03:18:45;18.67;;;14.43;;
2029;SDS011;1020;48.854;8.830;2023-03-01T03:21:12;19.30;;;14.30;;
2029;SDS011;1020;48.854;8.830;2023-03-01T03:23:39;16.83;;;14.10;;
2029;SDS011;1020;48.854;8.830;2023-03-01T03:26:06;17.17;;;14.23;;
2029;SDS011;1020;48.854;8.830;2023-03-01T03:28:33;18.87;;;14.37;;
2029;SDS011;1020;48.854;8.830;2023-03-01T03:31:05;22.13;;;14.97;;
2029;SDS011;1020;48.854;8.830;2023-03-01T03:33:33;20.07;;;15.17;;
2029;SDS011;1020;48.854;8.830;2023-03-01T03:36:00;18.20;;;15.07;;
2029;SDS011;1020;48.854;8.830;2023-03-01T03:38:27;18.90;;;14.77;;
2029;SDS011;1020;48.854;8.830;2023-03-01T03:40:59;19.43;;;15.03;;
2029;SDS011;1020;48.854;8.830;2023-03-01T03:43:28;18.83;;;14.50;;
2029;SDS011;1020;48.854;8.830;2023-03-01T03:45:56;17.50;;;14.93;;
2029;SDS011;1020;48.854;8.830;2023-03-01T03:48:23;18.83;;;15.83;;
2029;SDS011;1020;48.854;8.830;2023-03-01T03:50:53;19.33;;;15.57;;
2029;SDS011;1020;48.854;8.830;2023-03-01T03:53:21;20.60;;;14.27;;
2029;SDS011;1020;48.854;8.830;2023-03-01T03:55:49;18.33;;;14.33;;
2029;SDS011;1020;48.854;8.830;2023-03-01T03:58:17;16.90;;;14.60;;
2029;SDS011;1020;48.854;8.830;2023-03-01T04:00:46;17.73;;;13.20;;
2029;SDS011;1020;48.854;8.830;2023-03-01T04:03:14;16.33;;;14.53;;
2029;SDS011;1020;48.854;8.830;2023-03-01T04:05:43;18.50;;;15.13;;
2029;SDS011;1020;48.854;8.830;2023-03-01T04:08:12;19.13;;;14.20;;
2029;SDS011;1020;48.854;8.830;2023-03-01T04:10:39;19.43;;;14.20;;
2029;SDS011;1020;48.854;8.830;2023-03-01T04:13:08;17.00;;;14.00;;
2029;SDS011;1020;48.854;8.830;2023-03-01T04:15:37;18.63;;;15.17;;
2029;SDS011;1020;48.854;8.830;2023-03-01T04:18:04;17.70;;;14.17;;
2029;SDS011;1020;48.854;8.830;2023-03-01T04:20:32;17.60;;;15.17;;
2029;SDS011;1020;48.854;8.830;2023-03-01T04:23:01;17.87;;;15.20;;
2029;SDS011;1020;48.854;8.830;2023-03-01T04:25:37;19.33;;;15.10;;
2029;SDS011;1020;48.854;8.830;2023-03-01T04:28:04;20.30;;;16.03;;
2029;SDS011;1020;48.854;8.830;2023-03-01T04:30:31;20.20;;;15.70;;
2029;SDS011;1020;48.854;8.830;2023-03-01T04:33:01;18.97;;;16.30;;
2029;SDS011;1020;48.854;8.830;2023-03-01T04:35:29;19.77;;;15.80;;
2029;SDS011;1020;48.854;8.830;2023-03-01T04:37:56;16.80;;;13.93;;
2029;SDS011;1020;48.854;8.830;2023-03-01T04:40:22;18.93;;;16.10;;
2029;SDS011;1020;48.854;8.830;2023-03-01T04:42:51;20.60;;;14.90;;
2029;SDS011;1020;48.854;8.830;2023-03-01T04:45:18;18.87;;;15.40;;
2029;SDS011;1020;48.854;8.830;2023-03-01T04:47:45;20.43;;;15.03;;
2029;SDS011;1020;48.854;8.830;2023-03-01T04:50:14;19.67;;;15.70;;
2029;SDS011;1020;48.854;8.830;2023-03-01T04:52:42;21.53;;;16.07;;
2029;SDS011;1020;48.854;8.830;2023-03-01T04:55:09;16.20;;;14.17;;
2029;SDS011;1020;48.854;8.830;2023-03-01T04:57:36;18.00;;;15.00;;
2029;SDS011;1020;48.854;8.830;2023-03-01T05:00:05;22.53;;;14.57;;
2029;SDS011;1020;48.854;8.830;2023-03-01T05:02:45;21.07;;;15.70;;
2029;SDS011;1020;48.854;8.830;2023-03-01T05:05:14;18.60;;;14.57;;
2029;SDS011;1020;48.854;8.830;2023-03-01T05:07:40;19.30;;;15.07;;
2029;SDS011;1020;48.854;8.830;2023-03-01T05:10:07;19.83;;;15.60;;
2029;SDS011;1020;48.854;8.830;2023-03-01T05:12:35;15.70;;;13.13;;
2029;SDS011;1020;48.854;8.830;2023-03-01T05:15:02;23.50;;;15.60;;
2029;SDS011;1020;48.854;8.830;2023-03-01T05:17:33;22.73;;;16.03;;
2029;SDS011;1020;48.854;8.830;2023-03-01T05:20:00;18.13;;;15.30;;
2029;SDS011;1020;48.854;8.830;2023-03-01T05:22:30;21.50;;;15.90;;
2029;SDS011;1020;48.854;8.830;2023-03-01T05:24:57;17.80;;;15.13;;
2029;SDS011;1020;48.854;8.830;2023-03-01T05:27:24;21.17;;;15.93;;
2029;SDS011;1020;48.854;8.830;2023-03-01T05:29:51;20.13;;;15.70;;
2029;SDS011;1020;48.854;8.830;2023-03-01T05:32:17;21.77;;;16.30;;
2029;SDS011;1020;48.854;8.830;2023-03-01T05:34:45;18.40;;;15.83;;
2029;SDS011;1020;48.854;8.830;2023-03-01T05:37:12;19.10;;;15.27;;
2029;SDS011;1020;48.854;8.830;2023-03-01T05:39:39;21.33;;;15.90;;
2029;SDS011;1020;48.854;8.830;2023-03-01T05:42:09;19.80;;;15.37;;
2029;SDS011;1020;48.854;8.830;2023-03-01T05:44:37;19.03;;;15.27;;
2029;SDS011;1020;48.854;8.830;2023-03-01T05:47:04;21.80;;;16.87;;
2029;SDS011;1020;48.854;8.830;2023-03-01T05:49:31;21.37;;;16.50;;
2029;SDS011;1020;48.854;8.830;2023-03-01T05:51:59;22.00;;;15.23;;
2029;SDS011;1020;48.854;8.830;2023-03-01T05:54:26;18.63;;;15.80;;
2029;SDS011;1020;48.854;8.830;2023-03-01T05:56:52;18.43;;;14.80;;
2029;SDS011;1020;48.854;8.830;2023-03-01T05:59:19;20.90;;;16.27;;
2029;SDS011;1020;48.854;8.830;2023-03-01T06:01:46;19.53;;;15.43;;
2029;SDS011;1020;48.854;8.830;2023-03-01T06:04:13;19.90;;;14.80;;
2029;SDS011;1020;48.854;8.830;2023-03-01T06:06:40;21.30;;;15.50;;
2029;SDS011;1020;48.854;8.830;2023-03-01T06:09:08;25.20;;;19.33;;
2029;SDS011;1020;48.854;8.830;2023-03-01T06:11:35;20.80;;;16.07;;
2029;SDS011;1020;48.854;8.830;2023-03-01T06:14:02;23.07;;;17.23;;
2029;SDS011;1020;48.854;8.830;2023-03-01T06:16:31;21.83;;;16.43;;
2029;SDS011;1020;48.854;8.830;2023-03-01T06:18:58;22.50;;;17.90;;
2029;SDS011;1020;48.854;8.830;2023-03-01T06:21:25;19.13;;;15.93;;
2029;SDS011;1020;48.854;8.830;2023-03-01T06:23:51;23.63;;;16.20;;
2029;SDS011;1020;48.854;8.830;2023-03-01T06:26:19;23.40;;;16.07;;
2029;SDS011;1020;48.854;8.830;2023-03-01T06:28:46;20.60;;;16.00;;
2029;SDS011;1020;48.854;8.830;2023-03-01T06:31:13;20.40;;;16.33;;
2029;SDS011;1020;48.854;8.830;2023-03-01T06:33:40;22.17;;;16.67;;
2029;SDS011;1020;48.854;8.830;2023-03-01T06:36:07;19.33;;;16.10;;
2029;SDS011;1020;48.854;8.830;2023-03-01T06:38:35;23.30;;;15.87;;
2029;SDS011;1020;48.854;8.830;2023-03-01T06:41:01;21.17;;;16.37;;
2029;SDS011;1020;48.854;8.830;2023-03-01T06:43:29;20.90;;;17.20;;
2029;SDS011;1020;48.854;8.830;2023-03-01T06:45:56;20.93;;;16.60;;
2029;SDS011;1020;48.854;8.830;2023-03-01T06:48:23;24.80;;;16.67;;
2029;SDS011;1020;48.854;8.830;2023-03-01T06:50:50;23.73;;;18.17;;
2029;SDS011;1020;48.854;8.830;2023-03-01T06:53:16;24.40;;;17.10;;
2029;SDS011;1020;48.854;8.830;2023-03-01T06:55:43;22.10;;;15.83;;
2029;SDS011;1020;48.854;8.830;2023-03-01T06:58:10;21.30;;;15.57;;
2029;SDS011;1020;48.854;8.830;2023-03-01T07:00:38;23.03;;;17.20;;
2029;SDS011;1020;48.854;8.830;2023-03-01T07:03:05;22.77;;;16.73;;
2029;SDS011;1020;48.854;8.830;2023-03-01T07:05:33;21.37;;;16.60;;
2029;SDS011;1020;48.854;8.830;2023-03-01T07:07:59;20.47;;;16.47;;
2029;SDS011;1020;48.854;8.830;2023-03-01T07:10:26;20.13;;;16.00;;
2029;SDS011;1020;48.854;8.830;2023-03-01T07:12:54;21.60;;;16.27;;
2029;SDS011;1020;48.854;8.830;2023-03-01T07:15:21;20.53;;;16.50;;
2029;SDS011;1020;48.854;8.830;2023-03-01T07:17:50;19.37;;;15.27;;
2029;SDS011;1020;48.854;8.830;2023-03-01T07:20:17;23.87;;;17.90;;
2029;SDS011;1020;48.854;8.830;2023-03-01T07:22:46;21.00;;;16.17;;
2029;SDS011;1020;48.854;8.830;2023-03-01T07:25:13;24.33;;;18.00;;
2029;SDS011;1020;48.854;8.830;2023-03-01T07:27:40;24.90;;;17.40;;
2029;SDS011;1020;48.854;8.830;2023-03-01T07:30:07;23.63;;;16.80;;
2029;SDS011;1020;48.854;8.830;2023-03-01T07:32:35;20.03;;;15.23;;
2029;SDS011;1020;48.854;8.830;2023-03-01T07:35:03;20.33;;;16.97;;
2029;SDS011;1020;48.854;8.830;2023-03-01T07:37:30;18.67;;;15.97;;
2029;SDS011;1020;48.854;8.830;2023-03-01T07:39:57;21.13;;;17.50;;
2029;SDS011;1020;48.854;8.830;2023-03-01T07:42:24;17.70;;;15.40;;
2029;SDS011;1020;48.854;8.830;2023-03-01T07:44:51;20.70;;;17.27;;
2029;SDS011;1020;48.854;8.830;2023-03-01T07:47:17;19.37;;;15.40;;
2029;SDS011;1020;48.854;8.830;2023-03-01T07:49:44;19.83;;;16.30;;
2029;SDS011;1020;48.854;8.830;2023-03-01T07:52:12;18.40;;;15.03;;
2029;SDS011;1020;48.854;8.830;2023-03-01T07:54:39;17.90;;;15.43;;
2029;SDS011;1020;48.854;8.830;2023-03-01T07:57:09;19.57;;;15.93;;
2029;SDS011;1020;48.854;8.830;2023-03-01T07:59:35;22.37;;;16.23;;
2029;SDS011;1020;48.854;8.830;2023-03-01T08:02:02;18.27;;;15.30;;
2029;SDS011;1020;48.854;8.830;2023-03-01T08:04:29;16.83;;;15.00;;
2029;SDS011;1020;48.854;8.830;2023-03-01T08:06:55;17.63;;;15.00;;
2029;SDS011;1020;48.854;8.830;2023-03-01T08:09:24;17.13;;;15.33;;
2029;SDS011;1020;48.854;8.830;2023-03-01T08:11:51;16.40;;;14.70;;
2029;SDS011;1020;48.854;8.830;2023-03-01T08:14:19;18.33;;;16.43;;
2029;SDS011;1020;48.854;8.830;2023-03-01T08:16:48;15.80;;;14.10;;
2029;SDS011;1020;48.854;8.830;2023-03-01T08:19:15;16.70;;;14.77;;
2029;SDS011;1020;48.854;8.830;2023-03-01T08:21:42;17.03;;;15.33;;
2029;SDS011;1020;48.854;8.830;2023-03-01T08:24:09;18.07;;;16.30;;
2029;SDS011;1020;48.854;8.830;2023-03-01T08:26:37;16.93;;;15.23;;
2029;SDS011;1020;48.854;8.830;2023-03-01T08:29:04;17.60;;;15.43;;
2029;SDS011;1020;48.854;8.830;2023-03-01T08:31:32;17.07;;;15.40;;
2029;SDS011;1020;48.854;8.830;2023-03-01T08:34:01;20.63;;;17.70;;
2029;SDS011;1020;48.854;8.830;2023-03-01T08:36:31;18.40;;;16.50;;
2029;SDS011;1020;48.854;8.830;2023-03-01T08:38:59;17.57;;;15.80;;
2029;SDS011;1020;48.854;8.830;2023-03-01T08:41:26;16.77;;;15.17;;
2029;SDS011;1020;48.854;8.830;2023-03-01T08:43:55;19.63;;;15.77;;
2029;SDS011;1020;48.854;8.830;2023-03-01T08:46:24;18.03;;;16.33;;
2029;SDS011;1020;48.854;8.830;2023-03-01T08:48:51;18.17;;;16.27;;
2029;SDS011;1020;48.854;8.830;2023-03-01T08:51:18;17.57;;;15.77;;
2029;SDS011;1020;48.854;8.830;2023-03-01T08:53:46;17.60;;;15.83;;
2029;SDS011;1020;48.854;8.830;2023-03-01T08:56:14;18.27;;;16.47;;
2029;SDS011;1020;48.854;8.830;2023-03-01T08:58:43;18.13;;;16.33;;
2029;SDS011;1020;48.854;8.830;2023-03-01T09:01:13;18.07;;;16.17;;
2029;SDS011;1020;48.854;8.830;2023-03-01T09:03:42;18.00;;;16.30;;
2029;SDS011;1020;48.854;8.830;2023-03-01T09:06:09;18.73;;;16.90;;
2029;SDS011;1020;48.854;8.830;2023-03-01T09:08:36;20.40;;;16.20;;
2029;SDS011;1020;48.854;8.830;2023-03-01T09:11:04;18.80;;;16.80;;
2029;SDS011;1020;48.854;8.830;2023-03-01T09:13:33;18.20;;;16.40;;
2029;SDS011;1020;48.854;8.830;2023-03-01T09:16:00;19.57;;;17.23;;
2029;SDS011;1020;48.854;8.830;2023-03-01T09:18:30;18.27;;;16.37;;
2029;SDS011;1020;48.854;8.830;2023-03-01T09:21:00;18.80;;;15.53;;
2029;SDS011;1020;48.854;8.830;2023-03-01T09:23:27;18.70;;;16.80;;
2029;SDS011;1020;48.854;8.830;2023-03-01T09:25:54;19.20;;;17.13;;
2029;SDS011;1020;48.854;8.830;2023-03-01T09:28:21;19.27;;;17.33;;
2029;SDS011;1020;48.854;8.830;2023-03-01T09:30:48;18.70;;;16.90;;
2029;SDS011;1020;48.854;8.830;2023-03-01T09:33:14;19.37;;;17.40;;
2029;SDS011;1020;48.854;8.830;2023-03-01T09:35:43;18.13;;;16.33;;
2029;SDS011;1020;48.854;8.830;2023-03-01T09:38:11;19.13;;;17.27;;
2029;SDS011;1020;48.854;8.830;2023-03-01T09:40:41;18.90;;;17.00;;
2029;SDS011;1020;48.854;8.830;2023-03-01T09:43:13;17.93;;;16.20;;
2029;SDS011;1020;48.854;8.830;2023-03-01T09:45:44;19.40;;;17.40;;
2029;SDS011;1020;48.854;8.830;2023-03-01T09:48:15;18.43;;;16.70;;
2029;SDS011;1020;48.854;8.830;2023-03-01T09:50:45;17.10;;;15.30;;
2029;SDS011;1020;48.854;8.830;2023-03-01T09:53:13;18.70;;;16.90;;
2029;SDS011;1020;48.854;8.830;2023-03-01T09:55:42;18.97;;;17.07;;
2029;SDS011;1020;48.854;8.830;2023-03-01T09:58:25;19.97;;;17.97;;
2029;SDS011;1020;48.854;8.830;2023-03-01T10:00:58;17.93;;;15.97;;
2029;SDS011;1020;48.854;8.830;2023-03-01T10:03:30;18.73;;;16.90;;
2029;SDS011;1020;48.854;8.830;2023-03-01T10:06:04;19.20;;;17.20;;
2029;SDS011;1020;48.854;8.830;2023-03-01T10:08:38;18.77;;;16.90;;
2029;SDS011;1020;48.854;8.830;2023-03-01T10:11:16;18.77;;;16.93;;
2029;SDS011;1020;48.854;8.830;2023-03-01T10:13:48;17.90;;;16.00;;
2029;SDS011;1020;48.854;8.830;2023-03-01T10:16:21;19.23;;;17.40;;
2029;SDS011;1020;48.854;8.830;2023-03-01T10:18:55;19.50;;;17.60;;
2029;SDS011;1020;48.854;8.830;2023-03-01T10:21:27;19.60;;;17.60;;
2029;SDS011;1020;48.854;8.830;2023-03-01T10:23:56;18.57;;;16.87;;
2029;SDS011;1020;48.854;8.830;2023-03-01T10:26:38;18.47;;;16.60;;
2029;SDS011;1020;48.854;8.830;2023-03-01T10:29:14;21.90;;;17.93;;
2029;SDS011;1020;48.854;8.830;2023-03-01T10:31:41;18.90;;;17.00;;
2029;SDS011;1020;48.854;8.830;2023-03-01T10:34:12;18.33;;;16.53;;
2029;SDS011;1020;48.854;8.830;2023-03-01T10:36:42;18.50;;;16.67;;
2029;SDS011;1020;48.854;8.830;2023-03-01T10:39:12;17.67;;;16.00;;
2029;SDS011;1020;48.854;8.830;2023-03-01T10:41:57;19.63;;;17.63;;
2029;SDS011;1020;48.854;8.830;2023-03-01T10:44:36;17.20;;;14.90;;
2029;SDS011;1020;48.854;8.830;2023-03-01T10:47:08;17.30;;;15.70;;
2029;SDS011;1020;48.854;8.830;2023-03-01T10:49:51;17.43;;;15.63;;
2029;SDS011;1020;48.854;8.830;2023-03-01T10:52:24;18.47;;;16.57;;
2029;SDS011;1020;48.854;8.830;2023-03-01T10:54:55;20.40;;;18.40;;
2029;SDS011;1020;48.854;8.830;2023-03-01T10:57:33;18.50;;;16.80;;
2029;SDS011;1020;48.854;8.830;2023-03-01T11:02:49;17.17;;;15.47;;
2029;SDS011;1020;48.854;8.830;2023-03-01T11:05:19;21.63;;;16.90;;
2029;SDS011;1020;48.854;8.830;2023-03-01T11:07:50;19.87;;;17.97;;
2029;SDS011;1020;48.854;8.830;2023-03-01T11:10:20;17.50;;;15.80;;
2029;SDS011;1020;48.854;8.830;2023-03-01T11:12:48;18.40;;;16.10;;
2029;SDS011;1020;48.854;8.830;2023-03-01T11:15:20;17.50;;;15.80;;
2029;SDS011;1020;48.854;8.830;2023-03-01T11:17:49;18.83;;;16.50;;
2029;SDS011;1020;48.854;8.830;2023-03-01T11:20:18;18.83;;;17.00;;
2029;SDS011;1020;48.854;8.830;2023-03-01T11:22:53;18.40;;;16.60;;
2029;SDS011;1020;48.854;8.830;2023-03-01T11:25:23;17.70;;;16.00;;
2029;SDS011;1020;48.854;8.830;2023-03-01T11:27:52;17.27;;;15.67;;
2029;SDS011;1020;48.854;8.830;2023-03-01T11:30:21;17.90;;;16.00;;
2029;SDS011;1020;48.854;8.830;2023-03-01T11:32:53;17.33;;;15.73;;
2029;SDS011;1020;48.854;8.830;2023-03-01T11:35:27;19.00;;;16.77;;
2029;SDS011;1020;48.854;8.830;2023-03-01T11:38:02;17.67;;;15.77;;
2029;SDS011;1020;48.854;8.830;2023-03-01T11:40:42;17.60;;;15.90;;
2029;SDS011;1020;48.854;8.830;2023-03-01T11:43:15;17.80;;;16.20;;
2029;SDS011;1020;48.854;8.830;2023-03-01T11:45:50;17.73;;;16.10;;
2029;SDS011;1020;48.854;8.830;2023-03-01T11:48:40;17.77;;;16.07;;
2029;SDS011;1020;48.854;8.830;2023-03-01T11:51:20;19.37;;;15.77;;
2029;SDS011;1020;48.854;8.830;2023-03-01T11:53:53;17.37;;;15.57;;
2029;SDS011;1020;48.854;8.830;2023-03-01T11:56:43;18.20;;;16.50;;
2029;SDS011;1020;48.854;8.830;2023-03-01T12:02:10;18.33;;;16.03;;
2029;SDS011;1020;48.854;8.830;2023-03-01T12:05:02;18.53;;;16.77;;
2029;SDS011;1020;48.854;8.830;2023-03-01T12:07:45;16.40;;;14.80;;
2029;SDS011;1020;48.854;8.830;2023-03-01T12:10:23;17.73;;;15.83;;
2029;SDS011;1020;48.854;8.830;2023-03-01T12:12:56;17.80;;;16.10;;
2029;SDS011;1020;48.854;8.830;2023-03-01T12:15:39;15.80;;;14.27;;
2029;SDS011;1020;48.854;8.830;2023-03-01T12:21:44;17.30;;;15.60;;
2029;SDS011;1020;48.854;8.830;2023-03-01T12:24:33;17.43;;;15.63;;
2029;SDS011;1020;48.854;8.830;2023-03-01T12:27:20;16.90;;;15.20;;
2029;SDS011;1020;48.854;8.830;2023-03-01T12:30:00;16.30;;;14.80;;
2029;SDS011;1020;48.854;8.830;2023-03-01T12:32:41;16.10;;;14.50;;
2029;SDS011;1020;48.854;8.830;2023-03-01T12:35:27;17.53;;;15.70;;
2029;SDS011;1020;48.854;8.830;2023-03-01T12:38:15;17.13;;;15.53;;
2029;SDS011;1020;48.854;8.830;2023-03-01T12:44:01;16.77;;;15.07;;
2029;SDS011;1020;48.854;8.830;2023-03-01T12:46:40;17.60;;;15.80;;
2029;SDS011;1020;48.854;8.830;2023-03-01T12:49:18;16.33;;;14.73;;
2029;SDS011;1020;48.854;8.830;2023-03-01T12:51:50;17.53;;;15.63;;
2029;SDS011;1020;48.854;8.830;2023-03-01T12:54:20;17.20;;;15.60;;
2029;SDS011;1020;48.854;8.830;2023-03-01T12:56:53;16.97;;;15.40;;
2029;SDS011;1020;48.854;8.830;2023-03-01T12:59:23;15.93;;;14.53;;
2029;SDS011;1020;48.854;8.830;2023-03-01T13:02:01;17.13;;;15.43;;
2029;SDS011;1020;48.854;8.830;2023-03-01T13:07:34;16.83;;;15.20;;
2029;SDS011;1020;48.854;8.830;2023-03-01T13:10:17;18.10;;;14.90;;
2029;SDS011;1020;48.854;8.830;2023-03-01T13:12:52;17.13;;;15.43;;
2029;SDS011;1020;48.854;8.830;2023-03-01T13:15:30;17.43;;;15.63;;
2029;SDS011;1020;48.854;8.830;2023-03-01T13:17:59;17.43;;;15.70;;
2029;SDS011;1020;48.854;8.830;2023-03-01T13:20:30;17.60;;;15.97;;
2029;SDS011;1020;48.854;8.830;2023-03-01T13:23:09;17.63;;;15.90;;
2029;SDS011;1020;48.854;8.830;2023-03-01T13:28:39;17.43;;;15.80;;
2029;SDS011;1020;48.854;8.830;2023-03-01T13:31:09;16.70;;;15.20;;
2029;SDS011;1020;48.854;8.830;2023-03-01T13:33:57;18.23;;;16.43;;
2029;SDS011;1020;48.854;8.830;2023-03-01T13:39:30;17.67;;;16.00;;
2029;SDS011;1020;48.854;8.830;2023-03-01T13:41:58;18.37;;;16.67;;
2029;SDS011;1020;48.854;8.830;2023-03-01T13:44:26;18.33;;;16.23;;
2029;SDS011;1020;48.854;8.830;2023-03-01T13:46:59;18.63;;;16.93;;
2029;SDS011;1020;48.854;8.830;2023-03-01T13:49:36;18.03;;;16.33;;
2029;SDS011;1020;48.854;8.830;2023-03-01T13:52:19;17.93;;;16.23;;
2029;SDS011;1020;48.854;8.830;2023-03-01T13:54:57;18.40;;;16.60;;
2029;SDS011;1020;48.854;8.830;2023-03-01T13:57:28;18.80;;;16.90;;
2029;SDS011;1020;48.854;8.830;2023-03-01T13:59:59;18.33;;;16.60;;
2029;SDS011;1020;48.854;8.830;2023-03-01T14:02:27;18.17;;;16.47;;
2029;SDS011;1020;48.854;8.830;2023-03-01T14:04:57;18.53;;;16.63;;
2029;SDS011;1020;48.854;8.830;2023-03-01T14:07:25;18.93;;;17.23;;
2029;SDS011;1020;48.854;8.830;2023-03-01T14:09:54;17.90;;;16.20;;
2029;SDS011;1020;48.854;8.830;2023-03-01T14:12:36;17.37;;;15.77;;
2029;SDS011;1020;48.854;8.830;2023-03-01T14:15:12;18.40;;;16.50;;
2029;SDS011;1020;48.854;8.830;2023-03-01T14:17:47;18.27;;;15.97;;
2029;SDS011;1020;48.854;8.830;2023-03-01T14:20:20;17.93;;;16.20;;
2029;SDS011;1020;48.854;8.830;2023-03-01T14:22:49;18.10;;;16.30;;
2029;SDS011;1020;48.854;8.830;2023-03-01T14:25:23;17.40;;;15.80;;
2029;SDS011;1020;48.854;8.830;2023-03-01T14:27:57;17.57;;;15.87;;
2029;SDS011;1020;48.854;8.830;2023-03-01T14:30:27;16.10;;;14.60;;
2029;SDS011;1020;48.854;8.830;2023-03-01T14:32:59;16.83;;;15.30;;
2029;SDS011;1020;48.854;8.830;2023-03-01T14:35:28;16.40;;;14.73;;
2029;SDS011;1020;48.854;8.830;2023-03-01T14:37:56;16.20;;;14.70;;
2029;SDS011;1020;48.854;8.830;2023-03-01T14:40:25;17.93;;;16.23;;
2029;SDS011;1020;48.854;8.830;2023-03-01T14:42:53;17.90;;;16.20;;
2029;SDS011;1020;48.854;8.830;2023-03-01T14:45:23;18.80;;;16.10;;
2029;SDS011;1020;48.854;8.830;2023-03-01T14:47:52;19.40;;;17.20;;
2029;SDS011;1020;48.854;8.830;2023-03-01T14:50:23;18.43;;;16.57;;
2029;SDS011;1020;48.854;8.830;2023-03-01T14:52:53;17.73;;;15.93;;
2029;SDS011;1020;48.854;8.830;2023-03-01T14:55:23;17.87;;;16.10;;
2029;SDS011;1020;48.854;8.830;2023-03-01T14:57:53;18.70;;;16.80;;
2029;SDS011;1020;48.854;8.830;2023-03-01T15:00:21;18.33;;;16.43;;
2029;SDS011;1020;48.854;8.830;2023-03-01T15:02:48;21.07;;;17.30;;
2029;SDS011;1020;48.854;8.830;2023-03-01T15:05:18;16.00;;;14.50;;
2029;SDS011;1020;48.854;8.830;2023-03-01T15:07:51;19.10;;;15.47;;
2029;SDS011;1020;48.854;8.830;2023-03-01T15:10:26;18.50;;;16.53;;
2029;SDS011;1020;48.854;8.830;2023-03-01T15:12:54;18.10;;;16.30;;
2029;SDS011;1020;48.854;8.830;2023-03-01T15:15:32;17.90;;;16.17;;
2029;SDS011;1020;48.854;8.830;2023-03-01T15:18:02;18.70;;;15.87;;
2029;SDS011;1020;48.854;8.830;2023-03-01T15:20:32;16.77;;;15.07;;
2029;SDS011;1020;48.854;8.830;2023-03-01T15:23:01;18.30;;;16.53;;
2029;SDS011;1020;48.854;8.830;2023-03-01T15:25:30;19.77;;;17.77;;
2029;SDS011;1020;48.854;8.830;2023-03-01T15:27:58;18.43;;;16.23;;